Latest Weather Observations for Spitfire Channel

IDQ60801

Issued at 11:32 am EST Saturday 2 July 2016 (issued every 30 minutes, with the page automatically refreshed every 10 minutes)

About weather observations | Map of weather stations | Latest weather observations for QLD | Other Formats
Station Details ID: 040927 Name: SPITFIRE CHANNEL BEACON Lat: -27.05 Lon: 153.27 Height: 7.0 m
Data from the previous 72 hours. | See also: Recent months for locations in Queensland
Date/Time
EST
Temp
°C
App
Temp
°C
Dew
Point
°C
Rel
Hum
%
Delta-T
°C
Wind Press
QNH
hPa
Press
MSL
hPa
Rain since
9am
mm
Dir  Spd
km/h
Gust
km/h
Spd
kts
Gust
kts
02/11:00am - - - - - S 19 20 10 11 - - -
02/10:30am - - - - - S 20 24 11 13 - - -
02/10:00am - - - - - S 15 19 8 10 - - -
02/09:30am - - - - - SSW 11 15 6 8 - - -
02/09:00am - - - - - SW 11 13 6 7 - - -
02/08:30am - - - - - SW 11 13 6 7 - - -
02/08:00am - - - - - SW 9 11 5 6 - - -
02/07:30am - - - - - SW 11 13 6 7 - - -
02/07:00am - - - - - WSW 11 15 6 8 - - -
02/06:30am - - - - - WSW 11 13 6 7 - - -
02/06:00am - - - - - WSW 11 13 6 7 - - -
02/05:30am - - - - - SW 13 17 7 9 - - -
02/05:00am - - - - - SW 15 19 8 10 - - -
02/04:30am - - - - - SW 15 17 8 9 - - -
02/04:00am - - - - - SW 19 24 10 13 - - -
02/03:30am - - - - - SSW 22 26 12 14 - - -
02/03:00am - - - - - SW 20 24 11 13 - - -
02/02:30am - - - - - SSW 24 30 13 16 - - -
02/02:00am - - - - - SSW 28 32 15 17 - - -
02/01:30am - - - - - SW 26 32 14 17 - - -
02/01:00am - - - - - SW 19 22 10 12 - - -
02/12:30am - - - - - SW 24 30 13 16 - - -
02/12:00am - - - - - SW 19 24 10 13 - - -
 
Date/Time
EST
Temp
°C
App
Temp
°C
Dew
Point
°C
Rel
Hum
%
Delta-T
°C
Wind Press
QNH
hPa
Press
MSL
hPa
Rain since
9am
mm
Dir  Spd
km/h
Gust
km/h
Spd
kts
Gust
kts
01/11:30pm - - - - - SW 20 24 11 13 - - -
01/11:00pm - - - - - WSW 19 24 10 13 - - -
01/10:30pm - - - - - SW 17 20 9 11 - - -
01/10:00pm - - - - - SW 17 20 9 11 - - -
01/09:30pm - - - - - SW 22 28 12 15 - - -
01/09:00pm - - - - - SW 26 32 14 17 - - -
01/08:30pm - - - - - WSW 19 24 10 13 - - -
01/08:00pm - - - - - WSW 20 24 11 13 - - -
01/07:30pm - - - - - WSW 17 19 9 10 - - -
01/07:00pm - - - - - SW 19 22 10 12 - - -
01/06:30pm - - - - - SW 15 17 8 9 - - -
01/06:00pm - - - - - W 7 9 4 5 - - -
01/05:30pm - - - - - WSW 7 9 4 5 - - -
01/05:00pm - - - - - WSW 11 11 6 6 - - -
01/04:30pm - - - - - WSW 15 17 8 9 - - -
01/04:00pm - - - - - WSW 17 20 9 11 - - -
01/03:30pm - - - - - NE 4 6 2 3 - - -
01/03:00pm - - - - - NNE 7 9 4 5 - - -
01/02:30pm - - - - - NNE 9 13 5 7 - - -
01/02:00pm - - - - - ENE 4 6 2 3 - - -
01/01:30pm - - - - - ESE 4 6 2 3 - - -
01/01:00pm - - - - - SE 7 9 4 5 - - -
01/12:30pm - - - - - SSW 15 20 8 11 - - -
01/12:00pm - - - - - S 9 15 5 8 - - -
01/11:30am - - - - - S 9 13 5 7 - - -
01/11:00am - - - - - SW 9 11 5 6 - - -
01/10:30am - - - - - SW 13 15 7 8 - - -
01/10:00am - - - - - WSW 13 15 7 8 - - -
01/09:30am - - - - - WSW 17 20 9 11 - - -
01/09:00am - - - - - WSW 20 24 11 13 - - -
01/08:30am - - - - - W 17 20 9 11 - - -
01/08:00am - - - - - WSW 17 19 9 10 - - -
01/07:30am - - - - - WSW 15 17 8 9 - - -
01/07:00am - - - - - WSW 15 19 8 10 - - -
01/06:30am - - - - - WSW 13 15 7 8 - - -
01/06:00am - - - - - W 15 19 8 10 - - -
01/05:30am - - - - - WNW 13 15 7 8 - - -
01/05:00am - - - - - WNW 13 15 7 8 - - -
01/04:30am - - - - - WNW 13 17 7 9 - - -
01/04:00am - - - - - W 13 17 7 9 - - -
01/03:30am - - - - - W 9 13 5 7 - - -
01/03:00am - - - - - W 11 15 6 8 - - -
01/02:30am - - - - - W 13 15 7 8 - - -
01/02:00am - - - - - W 9 11 5 6 - - -
01/01:30am - - - - - W 13 15 7 8 - - -
01/01:00am - - - - - W 9 11 5 6 - - -
01/12:30am - - - - - WNW 11 15 6 8 - - -
01/12:00am - - - - - NW 13 15 7 8 - - -
 
Date/Time
EST
Temp
°C
App
Temp
°C
Dew
Point
°C
Rel
Hum
%
Delta-T
°C
Wind Press
QNH
hPa
Press
MSL
hPa
Rain since
9am
mm
Dir  Spd
km/h
Gust
km/h
Spd
kts
Gust
kts
30/11:30pm - - - - - NW 15 17 8 9 - - -
30/11:00pm - - - - - NW 15 17 8 9 - - -
30/10:30pm - - - - - WNW 11 13 6 7 - - -
30/10:00pm - - - - - WNW 11 13 6 7 - - -
30/09:30pm - - - - - W 6 6 3 3 - - -
30/09:00pm - - - - - NNW 6 11 3 6 - - -
30/08:30pm - - - - - N 7 7 4 4 - - -
30/08:00pm - - - - - NNE 7 9 4 5 - - -
30/07:30pm - - - - - NNE 11 13 6 7 - - -
30/07:00pm - - - - - NNE 9 11 5 6 - - -
30/06:30pm - - - - - NE 7 9 4 5 - - -
30/06:00pm - - - - - ENE 7 9 4 5 - - -
30/05:30pm - - - - - E 2 4 1 2 - - -
30/05:00pm - - - - - E 4 6 2 3 - - -
30/04:30pm - - - - - E 6 6 3 3 - - -
30/04:00pm - - - - - ESE 6 7 3 4 - - -
30/03:30pm - - - - - SE 7 7 4 4 - - -
30/03:00pm - - - - - SE 7 9 4 5 - - -
30/02:30pm - - - - - SSE 7 9 4 5 - - -
30/02:00pm - - - - - SSE 9 11 5 6 - - -
30/01:30pm - - - - - S 9 11 5 6 - - -
30/01:00pm - - - - - S 13 15 7 8 - - -
30/12:30pm - - - - - S 15 17 8 9 - - -
30/12:00pm - - - - - S 15 17 8 9 - - -
30/11:30am - - - - - S 17 20 9 11 - - -
30/11:00am - - - - - S 17 19 9 10 - - -
30/10:30am - - - - - S 17 19 9 10 - - -
30/10:00am - - - - - S 19 20 10 11 - - -
30/09:30am - - - - - S 17 22 9 12 - - -
30/09:00am - - - - - S 17 19 9 10 - - -
30/08:30am - - - - - S 15 17 8 9 - - -
30/08:00am - - - - - S 17 20 9 11 - - -
30/07:30am - - - - - S 17 20 9 11 - - -
30/07:00am - - - - - S 19 20 10 11 - - -
30/06:30am - - - - - S 17 20 9 11 - - -
30/06:00am - - - - - S 19 20 10 11 - - -
30/05:30am - - - - - S 19 22 10 12 - - -
30/05:00am - - - - - S 15 19 8 10 - - -
30/04:30am - - - - - SSW 19 20 10 11 - - -
30/04:00am - - - - - SSW 17 20 9 11 - - -
30/03:30am - - - - - SSW 19 20 10 11 - - -
30/03:00am - - - - - S 17 20 9 11 - - -
30/02:30am - - - - - S 15 19 8 10 - - -
30/02:00am - - - - - SSW 15 17 8 9 - - -
30/01:30am - - - - - SSW 15 19 8 10 - - -
30/01:00am - - - - - SW 17 17 9 9 - - -
30/12:30am - - - - - SW 15 17 8 9 - - -
30/12:00am - - - - - SW 13 15 7 8 - - -
 
Date/Time
EST
Temp
°C
App
Temp
°C
Dew
Point
°C
Rel
Hum
%
Delta-T
°C
Wind Press
QNH
hPa
Press
MSL
hPa
Rain since
9am
mm
Dir  Spd
km/h
Gust
km/h
Spd
kts
Gust
kts
29/11:30pm - - - - - SSW 13 15 7 8 - - -
29/11:00pm - - - - - SSE 15 19 8 10 - - -
29/10:30pm - - - - - SE 19 22 10 12 - - -
29/10:00pm - - - - - SE 15 17 8 9 - - -
29/09:30pm - - - - - SE 19 20 10 11 - - -
29/09:00pm - - - - - SE 15 20 8 11 - - -
29/08:30pm - - - - - SE 15 17 8 9 - - -
29/08:00pm - - - - - SE 13 15 7 8 - - -
29/07:30pm - - - - - SE 11 15 6 8 - - -
29/07:00pm - - - - - SE 9 13 5 7 - - -
29/06:30pm - - - - - SSE 11 15 6 8 - - -
29/06:00pm - - - - - SSE 7 9 4 5 - - -
29/05:30pm - - - - - SSE 7 9 4 5 - - -
29/05:00pm - - - - - SSW 9 11 5 6 - - -
29/04:30pm - - - - - SSW 7 9 4 5 - - -
29/04:00pm - - - - - SSW 9 11 5 6 - - -
29/03:30pm - - - - - SSW 11 13 6 7 - - -
29/03:00pm - - - - - SSW 13 17 7 9 - - -
29/02:30pm - - - - - S 13 17 7 9 - - -
29/02:00pm - - - - - S 17 19 9 10 - - -
29/01:30pm - - - - - S 17 19 9 10 - - -
29/01:00pm - - - - - S 19 22 10 12 - - -
29/12:30pm - - - - - S 20 24 11 13 - - -
29/12:00pm - - - - - S 20 24 11 13 - - -

Other Formats:

Comma delimited format used in spreadsheet applications
http://www.bom.gov.au/fwo/IDQ60801/IDQ60801.94581.axf

JavaScript Object Notation format (JSON) in row-major order
http://www.bom.gov.au/fwo/IDQ60801/IDQ60801.94581.json